Time;durP1;ratioP1;P1;durP2;ratioP2;P2;SDS_P1;SDS_P2;PMS_P1;PMS_P2;Temp;Humidity;BMP_temperature;BMP_pressure;BME280_temperature;BME280_humidity;BME280_pressure;Samples;Min_cycle;Max_cycle;Signal;HPM_P1;HPM_P2
2021/12/13 00:01:29;;;;;;;140.55;60.58;;;;;;;-2.85;72.63;97876.55;1836413;78;27525;-80
2021/12/13 00:04:19;;;;;;;142.30;61.58;;;;;;;-2.94;72.69;97878.95;1836302;78;25675;-80
2021/12/13 00:06:54;;;;;;;143.47;63.05;;;;;;;-2.95;72.79;97877.73;1836810;77;26310;-79
2021/12/13 00:09:25;;;;;;;152.68;62.48;;;;;;;-3.00;72.71;97875.44;1830900;78;25848;-80
2021/12/13 00:11:57;;;;;;;153.05;65.85;;;;;;;-3.06;72.63;97876.39;1836281;78;25776;-80
2021/12/13 00:14:28;;;;;;;160.43;67.97;;;;;;;-3.10;72.50;97878.88;1836228;77;27351;-79
2021/12/13 00:17:03;;;;;;;163.85;68.22;;;;;;;-3.19;72.44;97890.14;1836334;78;25747;-80
2021/12/13 00:19:41;;;;;;;149.15;66.55;;;;;;;-3.27;72.39;97888.09;1833867;78;26204;-79
2021/12/13 00:22:16;;;;;;;143.60;64.45;;;;;;;-3.35;72.36;97887.31;1836237;78;26378;-79
2021/12/13 00:24:45;;;;;;;165.18;72.12;;;;;;;-3.40;72.35;97893.91;1836069;78;25682;-79
2021/12/13 00:27:23;;;;;;;167.72;71.42;;;;;;;-3.47;72.45;97890.86;1836352;78;27430;-79
2021/12/13 00:30:30;;;;;;;139.52;62.27;;;;;;;-3.49;72.37;97888.80;1836350;77;25664;-79
2021/12/13 00:33:37;;;;;;;126.65;55.00;;;;;;;-3.51;72.51;97888.58;1836319;77;25647;-80
2021/12/13 00:36:12;;;;;;;131.40;54.95;;;;;;;-3.55;72.48;97884.47;1836473;78;26271;-80
2021/12/13 00:38:49;;;;;;;140.73;58.35;;;;;;;-3.62;72.47;97881.42;1836368;78;25771;-80
2021/12/13 00:41:21;;;;;;;125.97;54.30;;;;;;;-3.65;72.54;97900.13;1836297;78;27228;-80
2021/12/13 00:43:56;;;;;;;116.70;52.00;;;;;;;-3.67;72.57;97899.40;1841521;77;25229;-79
2021/12/13 00:46:26;;;;;;;135.60;57.53;;;;;;;-3.71;72.57;97901.41;1844412;77;25706;-80
2021/12/13 00:48:57;;;;;;;122.55;53.60;;;;;;;-3.74;72.61;97906.05;1844252;77;26316;-80
2021/12/13 00:51:28;;;;;;;95.67;43.68;;;;;;;-3.77;72.69;97906.30;1844779;77;25692;-79
2021/12/13 00:54:00;;;;;;;125.43;55.97;;;;;;;-3.79;72.77;97913.00;1844911;77;28283;-80
2021/12/13 00:56:49;;;;;;;94.47;42.53;;;;;;;-3.82;72.58;97912.36;1844707;77;25675;-80
2021/12/13 00:59:39;;;;;;;118.57;52.93;;;;;;;-3.88;72.52;97912.34;1844257;77;25794;-80
2021/12/13 01:02:11;;;;;;;113.08;51.90;;;;;;;-3.95;72.57;97911.08;1844496;77;25798;-79
2021/12/13 01:05:03;;;;;;;118.45;52.27;;;;;;;-3.99;72.59;97901.72;1844810;77;25667;-80
2021/12/13 01:07:59;;;;;;;119.42;52.48;;;;;;;-4.02;72.57;97902.77;1844746;77;27359;-80
2021/12/13 01:11:00;;;;;;;117.25;53.63;;;;;;;-4.06;72.45;97905.25;1844561;77;25854;-81
2021/12/13 01:13:35;;;;;;;98.47;47.05;;;;;;;-4.11;72.47;97907.39;1801965;79;25726;-80
2021/12/13 01:16:20;;;;;;;121.13;52.93;;;;;;;-4.22;72.51;97895.41;1801655;79;26075;-80
2021/12/13 01:19:24;;;;;;;111.10;50.78;;;;;;;-4.23;72.66;97898.18;1799263;79;25797;-80
2021/12/13 01:21:41;;;;;;;111.73;49.87;;;;;;;-4.24;72.66;97896.02;1797137;79;27399;-80
2021/12/13 01:24:15;;;;;;;105.58;47.93;;;;;;;-4.27;72.61;97900.18;1801055;79;25244;-81
2021/12/13 01:26:48;;;;;;;108.63;49.40;;;;;;;-4.30;72.61;97903.02;1801135;78;25465;-81
2021/12/13 01:29:23;;;;;;;116.80;50.35;;;;;;;-4.31;72.62;97902.66;1801712;79;25732;-81
2021/12/13 01:32:00;;;;;;;118.87;51.37;;;;;;;-4.34;72.57;97905.49;1801633;79;25639;-80
2021/12/13 01:34:31;;;;;;;115.12;53.55;;;;;;;-4.37;72.59;97896.51;1770298;79;27446;-81
2021/12/13 01:37:08;;;;;;;110.68;51.48;;;;;;;-4.39;72.60;97895.77;1801816;79;25728;-80
2021/12/13 01:39:33;;;;;;;106.00;52.03;;;;;;;-4.41;72.62;97895.02;1800549;79;25223;-81
2021/12/13 01:42:05;;;;;;;114.12;51.63;;;;;;;-4.42;72.69;97894.66;1801651;79;26393;-80
2021/12/13 01:44:36;;;;;;;116.62;51.37;;;;;;;-4.45;72.67;97894.86;1796732;79;25740;-80
2021/12/13 01:47:08;;;;;;;111.13;50.00;;;;;;;-4.46;72.74;97878.68;1796011;79;27415;-80
2021/12/13 01:49:43;;;;;;;108.35;50.43;;;;;;;-4.46;72.76;97881.31;1796057;79;25762;-80
2021/12/13 01:52:24;;;;;;;117.67;55.55;;;;;;;-4.47;72.82;97886.25;1796202;79;25739;-80
2021/12/13 01:54:52;;;;;;;120.77;56.42;;;;;;;-4.49;72.86;97881.08;1801685;79;26138;-79
2021/12/13 01:57:25;;;;;;;109.63;54.33;;;;;;;-4.50;72.89;97879.86;1796174;78;25706;-80
2021/12/13 02:00:08;;;;;;;129.53;56.30;;;;;;;-4.50;72.94;97885.13;1801536;79;27374;-80
2021/12/13 02:02:42;;;;;;;120.95;54.25;;;;;;;-4.52;72.90;97883.91;1801586;79;25804;-79
2021/12/13 02:05:14;;;;;;;115.03;55.45;;;;;;;-4.52;72.89;97896.25;1801743;79;25816;-80
2021/12/13 02:07:59;;;;;;;120.02;54.00;;;;;;;-4.53;72.88;97893.24;1801471;79;26245;-80
2021/12/13 02:10:36;;;;;;;113.80;52.73;;;;;;;-4.53;72.90;97887.50;1800111;79;25768;-80
2021/12/13 02:13:09;;;;;;;115.05;53.23;;;;;;;-4.55;72.89;97890.71;1801857;79;27375;-79
2021/12/13 02:18:30;;;;;;;122.55;57.50;;;;;;;-4.63;72.69;97890.88;1801706;79;25724;-80
2021/12/13 02:21:06;;;;;;;124.07;57.03;;;;;;;-4.74;72.63;97892.94;1801883;79;25894;-79
2021/12/13 02:23:38;;;;;;;117.13;54.40;;;;;;;-4.80;72.70;97882.80;1801283;78;25905;-80
2021/12/13 02:26:06;;;;;;;110.75;52.10;;;;;;;-4.84;72.77;97892.73;1802155;79;28258;-80
2021/12/13 02:28:38;;;;;;;114.92;54.35;;;;;;;-4.84;72.72;97892.73;1796017;78;25762;-80
2021/12/13 02:31:19;;;;;;;104.35;48.78;;;;;;;-4.89;72.70;97890.86;1801869;79;25649;-79
2021/12/13 02:33:54;;;;;;;121.60;55.03;;;;;;;-4.95;72.60;97887.31;1801596;79;26397;-79
2021/12/13 02:36:26;;;;;;;132.95;59.50;;;;;;;-5.00;72.69;97886.80;1801294;78;25737;-79
2021/12/13 02:38:57;;;;;;;133.10;60.75;;;;;;;-5.03;72.69;97881.73;1792188;78;32158;-80
2021/12/13 02:41:29;;;;;;;105.27;46.23;;;;;;;-5.05;72.66;97880.98;1770410;80;25775;-80
2021/12/13 02:44:05;;;;;;;121.60;53.95;;;;;;;-5.11;72.60;97869.57;1764709;79;25736;-81
2021/12/13 02:46:34;;;;;;;189.47;74.92;;;;;;;-5.14;72.62;97879.83;1769742;80;25721;-81
2021/12/13 02:49:06;;;;;;;180.50;74.42;;;;;;;-5.16;72.64;97888.30;1770072;80;25600;-80
2021/12/13 02:51:47;;;;;;;167.93;69.75;;;;;;;-5.16;72.64;97883.50;1769889;80;28380;-81
2021/12/13 02:54:24;;;;;;;189.70;72.60;;;;;;;-5.20;72.57;97885.98;1764678;80;25665;-80
2021/12/13 02:56:58;;;;;;;220.90;78.95;;;;;;;-5.29;72.46;97888.73;1768962;80;25513;-81
2021/12/13 02:59:30;;;;;;;168.15;65.12;;;;;;;-5.35;72.52;97881.73;1764695;79;25583;-80
2021/12/13 03:02:02;;;;;;;143.75;58.10;;;;;;;-5.36;72.65;97877.41;1789756;79;25732;-80
2021/12/13 03:04:31;;;;;;;124.33;53.17;;;;;;;-5.36;72.68;97873.47;1795467;78;27442;-79
2021/12/13 03:07:12;;;;;;;118.37;53.25;;;;;;;-5.35;72.74;97877.79;1801607;79;25729;-80
2021/12/13 03:09:43;;;;;;;122.55;53.25;;;;;;;-5.34;72.67;97876.84;1801932;79;25741;-79
2021/12/13 03:12:14;;;;;;;157.65;60.35;;;;;;;-5.36;72.71;97875.63;1796324;78;25700;-80
2021/12/13 03:14:46;;;;;;;158.55;60.95;;;;;;;-5.34;72.71;97870.27;1801552;79;25634;-80
2021/12/13 03:17:24;;;;;;;;;;;;;;;-5.31;72.73;97868.76;1798963;79;27345;-79
2021/12/13 03:20:27;;;;;;;144.07;57.03;;;;;;;-5.30;72.69;97866.00;1768703;79;25858;-80
2021/12/13 03:23:31;;;;;;;151.10;57.95;;;;;;;-5.31;72.68;97864.81;1801470;78;25693;-79
2021/12/13 03:26:35;;;;;;;172.43;63.80;;;;;;;-5.29;72.65;97862.89;1800939;79;25830;-79
2021/12/13 03:29:39;;;;;;;141.43;58.13;;;;;;;-5.20;72.63;97863.62;1801400;78;25717;-79
2021/12/13 03:32:10;;;;;;;142.40;53.98;;;;;;;-5.23;72.44;97863.81;1796169;78;27431;-79
2021/12/13 03:34:40;;;;;;;131.57;52.98;;;;;;;-5.24;72.41;97867.39;1801882;79;25679;-79
2021/12/13 03:37:16;;;;;;;125.95;49.58;;;;;;;-5.22;72.19;97868.14;1801770;79;25716;-79
2021/12/13 03:39:48;;;;;;;116.50;47.88;;;;;;;-5.26;72.09;97872.75;1772664;79;26086;-80
2021/12/13 03:42:28;;;;;;;112.40;46.15;;;;;;;-5.24;72.10;97873.50;1770247;81;25807;-80
2021/12/13 03:45:00;;;;;;;109.30;46.00;;;;;;;-5.22;72.06;97874.24;1769778;80;28201;-79
2021/12/13 03:47:36;;;;;;;117.60;45.58;;;;;;;-5.26;71.99;97870.59;1770232;81;25795;-80
2021/12/13 03:50:09;;;;;;;111.75;46.63;;;;;;;-5.27;71.96;97875.48;1770114;80;25764;-79
2021/12/13 03:52:39;;;;;;;105.17;44.03;;;;;;;-5.27;71.95;97882.06;1770125;81;25742;-80
2021/12/13 03:55:09;;;;;;;107.67;46.85;;;;;;;-5.29;71.92;97872.95;1770103;81;25756;-79
2021/12/13 03:57:41;;;;;;;92.17;42.75;;;;;;;-5.30;71.89;97871.26;1738371;77;26883;-77
2021/12/13 04:00:11;;;;;;;100.18;45.10;;;;;;;-5.29;71.90;97877.36;1730881;82;25753;-77
2021/12/13 04:02:41;;;;;;;106.85;45.92;;;;;;;-5.29;71.83;97876.05;1731072;82;25761;-77
2021/12/13 04:05:13;;;;;;;121.30;48.50;;;;;;;-5.32;71.73;97869.23;1731114;82;25755;-78
2021/12/13 04:07:48;;;;;;;111.20;48.28;;;;;;;-5.32;71.68;97880.22;1730931;82;26715;-80
2021/12/13 04:10:22;;;;;;;116.45;49.65;;;;;;;-5.31;71.71;97879.28;1731262;82;28012;-77
2021/12/13 04:12:53;;;;;;;123.22;51.83;;;;;;;-5.30;71.68;97883.57;1731012;82;25771;-77
2021/12/13 04:15:56;;;;;;;140.00;60.23;;;;;;;-5.32;71.65;97881.07;1731066;82;25814;-78
2021/12/13 04:21:37;;;;;;;141.65;61.42;;;;;;;-5.43;71.61;97884.04;1731169;82;25839;-79
2021/12/13 04:24:09;;;;;;;139.15;58.35;;;;;;;-5.51;71.63;97886.69;1729924;82;28052;-76
2021/12/13 04:26:47;;;;;;;138.50;59.25;;;;;;;-5.53;71.73;97888.56;1731185;82;25735;-77
2021/12/13 04:29:21;;;;;;;119.87;51.68;;;;;;;-5.49;71.71;97894.01;1729967;82;25761;-80
2021/12/13 04:31:50;;;;;;;118.05;49.67;;;;;;;-5.51;71.55;97907.73;1731136;82;25846;-78
2021/12/13 04:34:20;;;;;;;123.97;52.05;;;;;;;-5.54;71.48;97905.29;1731225;82;25962;-77
2021/12/13 04:36:51;;;;;;;116.25;50.83;;;;;;;-5.56;71.52;97907.67;1731080;82;28029;-76
2021/12/13 04:39:36;;;;;;;130.45;51.63;;;;;;;-5.59;71.37;97907.39;1730947;82;25805;-78
2021/12/13 04:42:08;;;;;;;135.12;52.83;;;;;;;-5.65;71.26;97913.03;1730780;82;25409;-77
2021/12/13 04:44:55;;;;;;;120.13;48.92;;;;;;;-5.73;71.30;97911.84;1730916;82;26165;-77
2021/12/13 04:47:33;;;;;;;107.00;46.40;;;;;;;-5.73;71.50;97914.01;1730710;82;26363;-79
2021/12/13 04:50:14;;;;;;;116.25;48.23;;;;;;;-5.71;71.45;97923.96;1731115;82;27403;-80
2021/12/13 04:52:43;;;;;;;111.08;48.05;;;;;;;-5.74;71.38;97920.20;1703486;82;26011;-79
2021/12/13 04:55:24;;;;;;;113.57;49.85;;;;;;;-5.80;71.42;97914.04;1731083;82;25689;-80
2021/12/13 04:57:54;;;;;;;110.48;48.02;;;;;;;-5.81;71.52;97917.61;1724057;82;25691;-78
2021/12/13 05:00:25;;;;;;;115.80;49.85;;;;;;;-5.73;71.64;97920.58;1719459;83;25772;-77
2021/12/13 05:02:58;;;;;;;111.97;49.33;;;;;;;-5.72;71.40;97908.28;1719260;83;32160;-79
2021/12/13 05:05:28;;;;;;;127.72;51.63;;;;;;;-5.79;71.25;97907.81;1718944;83;25771;-77
2021/12/13 05:07:56;;;;;;;118.85;54.98;;;;;;;-5.84;71.35;97905.97;1719233;83;25688;-77
2021/12/13 05:10:25;;;;;;;125.10;53.20;;;;;;;-5.82;71.47;97905.41;1719187;83;25790;-77
2021/12/13 05:13:09;;;;;;;119.10;52.93;;;;;;;-5.77;71.40;97916.92;1719511;82;26407;-79
2021/12/13 05:15:43;;;;;;;162.70;66.67;;;;;;;-5.81;71.25;97922.40;1715280;83;28059;-76
2021/12/13 05:18:20;;;;;;;149.40;64.22;;;;;;;-5.85;71.27;97929.25;1690590;84;25697;-77
2021/12/13 05:20:51;;;;;;;142.13;60.52;;;;;;;-5.88;71.30;97924.21;1690561;84;25754;-78
2021/12/13 05:23:23;;;;;;;135.03;55.78;;;;;;;-5.95;71.27;97913.73;1705766;83;25803;-78
2021/12/13 05:25:54;;;;;;;114.53;44.07;;;;;;;-5.93;71.36;97910.53;1719537;82;25342;-78
2021/12/13 05:28:29;;;;;;;100.50;44.07;;;;;;;-5.88;71.38;97917.14;1719193;83;27374;-77
2021/12/13 05:31:04;;;;;;;133.57;53.13;;;;;;;-5.85;71.36;97922.20;1717616;83;25756;-80
2021/12/13 05:33:36;;;;;;;128.32;52.23;;;;;;;-5.83;71.31;97920.33;1719382;83;25762;-78
2021/12/13 05:36:11;;;;;;;130.43;52.93;;;;;;;-5.85;71.19;97929.25;1719508;83;25756;-79
2021/12/13 05:38:45;;;;;;;117.35;51.73;;;;;;;-5.87;71.23;97927.19;1692640;83;26390;-78
2021/12/13 05:41:23;;;;;;;130.00;52.08;;;;;;;-5.88;71.13;97932.91;1719363;83;27523;-78
2021/12/13 05:44:01;;;;;;;122.60;49.48;;;;;;;-5.92;71.14;97933.25;1719265;83;25833;-77
2021/12/13 05:46:38;;;;;;;116.65;48.08;;;;;;;-5.96;71.06;97926.02;1719422;83;25729;-79
2021/12/13 05:49:10;;;;;;;118.60;49.60;;;;;;;-6.03;71.09;97931.74;1719328;83;26259;-80
2021/12/13 05:51:44;;;;;;;126.05;56.35;;;;;;;-6.07;71.17;97930.27;1719395;83;25739;-78
2021/12/13 05:54:28;;;;;;;147.43;59.67;;;;;;;-6.04;71.33;97930.93;1719406;83;27466;-79
2021/12/13 05:57:02;;;;;;;140.68;59.67;;;;;;;-5.96;71.38;97937.00;1719283;83;25712;-77
2021/12/13 05:59:34;;;;;;;133.87;57.17;;;;;;;-5.91;71.27;97934.91;1718947;83;25707;-80
2021/12/13 06:02:12;;;;;;;124.02;55.43;;;;;;;-5.79;71.50;97943.30;1719603;83;26115;-79
2021/12/13 06:04:44;;;;;;;127.78;55.45;;;;;;;-5.79;71.50;97943.30;1719631;83;25760;-80
2021/12/13 06:07:21;;;;;;;133.72;56.05;;;;;;;-5.76;71.20;97952.33;1719726;83;26835;-80
2021/12/13 06:09:55;;;;;;;116.85;50.67;;;;;;;-5.80;71.08;97952.98;1719518;83;26303;-80
2021/12/13 06:12:31;;;;;;;118.70;50.15;;;;;;;-5.85;71.06;97954.23;1719589;83;25796;-80
2021/12/13 06:15:27;;;;;;;107.50;45.43;;;;;;;-5.82;71.13;97955.36;1719532;83;26405;-81
2021/12/13 06:18:14;;;;;;;133.12;52.13;;;;;;;-5.85;70.95;97952.91;1718911;83;25696;-80
2021/12/13 06:21:14;;;;;;;134.82;56.65;;;;;;;-5.91;70.88;97955.95;1719526;83;27611;-80
2021/12/13 06:23:41;;;;;;;145.28;61.20;;;;;;;-5.96;70.90;97958.87;1697847;83;25716;-80
2021/12/13 06:26:11;;;;;;;139.35;58.33;;;;;;;-5.95;70.94;97968.92;1719543;83;25650;-79
2021/12/13 06:28:49;;;;;;;118.62;50.15;;;;;;;-5.97;70.91;97970.80;1719280;83;26158;-80
2021/12/13 06:31:20;;;;;;;148.28;60.83;;;;;;;-5.99;70.76;97970.05;1718128;83;25776;-80
2021/12/13 06:33:58;;;;;;;182.93;68.75;;;;;;;-6.07;70.72;97974.95;1719621;83;27480;-80
2021/12/13 06:36:35;;;;;;;171.90;66.60;;;;;;;-6.12;70.80;97971.75;1719312;83;25768;-80
2021/12/13 06:39:10;;;;;;;181.32;68.62;;;;;;;-6.10;70.88;97968.55;1719160;82;25862;-80
2021/12/13 06:41:47;;;;;;;183.15;69.92;;;;;;;-6.08;70.92;97966.69;1719352;83;26303;-80
2021/12/13 06:44:38;;;;;;;197.32;74.53;;;;;;;-6.04;70.96;97976.08;1719492;83;25687;-81
2021/12/13 06:47:10;;;;;;;182.15;68.05;;;;;;;-6.03;70.88;97980.37;1719455;83;28316;-81
2021/12/13 06:49:53;;;;;;;168.97;69.82;;;;;;;-6.07;70.80;97977.11;1719499;83;25792;-81
2021/12/13 06:52:32;;;;;;;164.62;65.60;;;;;;;-6.09;70.76;97972.87;1719215;83;25807;-81
2021/12/13 06:55:07;;;;;;;167.98;67.67;;;;;;;-6.09;70.87;97971.56;1719320;83;26172;-81
2021/12/13 06:57:50;;;;;;;179.03;71.17;;;;;;;-6.08;70.88;97969.31;1718494;82;25819;-81
2021/12/13 07:00:26;;;;;;;184.18;68.05;;;;;;;-6.07;70.84;97976.27;1714148;83;27479;-81
2021/12/13 07:03:01;;;;;;;175.12;67.30;;;;;;;-6.08;70.97;97984.61;1713990;83;25757;-81
2021/12/13 07:05:39;;;;;;;169.80;69.35;;;;;;;-6.00;71.01;97982.34;1712925;83;25780;-80
2021/12/13 07:08:19;;;;;;;160.10;63.98;;;;;;;-5.98;70.89;97987.05;1714628;83;26145;-81
2021/12/13 07:10:57;;;;;;;161.22;65.00;;;;;;;-5.96;70.92;97998.31;1714688;83;25749;-81
2021/12/13 07:13:42;;;;;;;155.87;64.03;;;;;;;-5.96;70.90;97994.38;1714659;83;28299;-81
2021/12/13 07:16:21;;;;;;;151.78;62.35;;;;;;;-5.97;70.83;97997.09;1714525;83;25764;-81
2021/12/13 07:19:00;;;;;;;142.47;58.40;;;;;;;-5.95;70.81;98001.79;1690519;83;25722;-81
2021/12/13 07:21:32;;;;;;;137.97;58.63;;;;;;;-5.99;70.82;98002.91;1714148;83;25695;-80
2021/12/13 07:24:09;;;;;;;139.37;59.03;;;;;;;-5.96;70.99;98001.41;1714533;83;26038;-81
2021/12/13 07:26:55;;;;;;;143.15;61.75;;;;;;;-5.86;71.11;98005.12;1714341;83;27465;-81
2021/12/13 07:29:33;;;;;;;131.65;58.92;;;;;;;-5.78;71.15;98006.80;1714567;83;25700;-81
2021/12/13 07:32:36;;;;;;;150.90;64.97;;;;;;;-5.74;71.11;98005.67;1714089;83;25740;-82
2021/12/13 07:35:20;;;;;;;167.82;74.35;;;;;;;-5.71;71.07;98002.86;1714406;83;25709;-81
2021/12/13 07:38:01;;;;;;;252.62;105.43;;;;;;;-5.68;71.09;98000.05;1714111;83;25692;-81
2021/12/13 07:40:41;;;;;;;219.25;98.25;;;;;;;-5.64;71.17;98012.03;1714632;83;27389;-81
2021/12/13 07:43:38;;;;;;;190.20;87.70;;;;;;;-5.59;71.27;98013.92;1714429;83;25791;-82
2021/12/13 07:46:22;;;;;;;162.88;74.55;;;;;;;-5.46;71.37;98016.62;1714752;83;25696;-82
2021/12/13 07:48:54;;;;;;;151.37;71.30;;;;;;;-5.33;71.23;98020.63;1714585;83;26224;-82
2021/12/13 07:51:41;;;;;;;135.60;67.12;;;;;;;-5.25;71.16;98019.19;1714593;83;25830;-82
2021/12/13 07:54:13;;;;;;;143.50;66.85;;;;;;;-5.17;71.13;98026.58;1712781;83;27475;-82
2021/12/13 07:56:59;;;;;;;138.32;64.05;;;;;;;-5.10;71.14;98034.47;1714690;83;25814;-82
2021/12/13 07:59:30;;;;;;;138.37;63.73;;;;;;;-4.99;71.26;98035.93;1724538;82;25766;-81
2021/12/13 08:02:17;;;;;;;127.17;58.30;;;;;;;-4.85;71.27;98025.34;1727576;83;25792;-82
2021/12/13 08:04:48;;;;;;;134.45;62.03;;;;;;;-4.83;71.02;98028.69;1727158;83;25731;-82
2021/12/13 08:07:26;;;;;;;140.68;62.30;;;;;;;-4.77;71.12;98034.05;1727589;83;32243;-81
2021/12/13 08:09:58;;;;;;;115.52;54.73;;;;;;;-4.68;71.12;98034.74;1727422;83;25779;-82
2021/12/13 08:12:36;;;;;;;110.72;53.28;;;;;;;-4.58;71.12;98037.13;1727656;83;26064;-81
2021/12/13 08:15:20;;;;;;;110.08;53.42;;;;;;;-4.47;71.14;98039.08;1727212;83;26256;-81
2021/12/13 08:17:58;;;;;;;111.75;51.65;;;;;;;-4.37;71.05;98041.46;1727322;83;25781;-81
2021/12/13 08:20:30;;;;;;;114.62;52.62;;;;;;;-4.28;71.03;98035.56;1727450;83;27331;-81
2021/12/13 08:22:57;;;;;;;115.77;57.78;;;;;;;-4.15;71.01;98043.00;1727656;83;26339;-81
2021/12/13 08:25:29;;;;;;;135.05;64.20;;;;;;;-4.08;70.93;98042.09;1727482;83;25736;-82
2021/12/13 08:28:03;;;;;;;96.55;43.45;;;;;;;-3.98;70.87;98041.83;1727531;83;26162;-82
2021/12/13 08:30:47;;;;;;;117.45;57.53;;;;;;;-3.87;70.79;98043.28;1727627;83;25792;-83
2021/12/13 08:33:19;;;;;;;117.28;56.53;;;;;;;-3.81;70.82;98044.63;1727598;83;27455;-82
2021/12/13 08:36:09;;;;;;;117.13;59.18;;;;;;;-3.70;70.78;98042.08;1727477;83;25719;-80
2021/12/13 08:38:53;;;;;;;129.87;63.08;;;;;;;-3.53;70.92;98041.75;1727471;83;25767;-81
2021/12/13 08:41:40;;;;;;;128.72;64.25;;;;;;;-3.33;70.83;98047.77;1725409;83;25735;-81
2021/12/13 08:44:30;;;;;;;113.65;59.00;;;;;;;-3.10;70.75;98041.30;1726881;83;25907;-79
2021/12/13 08:47:11;;;;;;;109.03;54.58;;;;;;;-2.91;70.55;98045.62;1727131;83;28289;-79
2021/12/13 08:49:45;;;;;;;105.25;48.55;;;;;;;-2.77;70.17;98049.87;1726261;83;25836;-79
2021/12/13 08:52:20;;;;;;;104.92;51.13;;;;;;;-2.65;70.14;98047.65;1725566;82;25807;-81
2021/12/13 08:55:13;;;;;;;87.88;41.37;;;;;;;-2.45;70.04;98044.86;1727098;83;26184;-81
2021/12/13 08:57:52;;;;;;;;;;;;;;;-2.23;70.03;98040.95;1730152;83;25673;-80
2021/12/13 09:00:45;;;;;;;82.90;39.98;;;;;;;-1.97;69.86;98041.13;1727467;83;28209;-81
2021/12/13 09:03:41;;;;;;;80.97;40.67;;;;;;;-1.98;69.13;98045.22;1660216;85;25780;-81
2021/12/13 09:06:30;;;;;;;82.55;42.35;;;;;;;-2.14;68.93;98042.89;1719763;83;25815;-81
2021/12/13 09:09:09;;;;;;;80.15;43.20;;;;;;;-2.09;69.54;98039.91;1718241;82;26091;-81
2021/12/13 09:11:57;;;;;;;78.67;38.80;;;;;;;-1.91;69.77;98038.48;1719696;83;25684;-81
2021/12/13 09:14:42;;;;;;;81.45;40.43;;;;;;;-1.74;69.61;98039.83;1719652;83;27425;-81
2021/12/13 09:17:23;;;;;;;81.92;40.35;;;;;;;-1.58;69.48;98041.17;1719588;83;25680;-81
2021/12/13 09:19:55;;;;;;;93.22;44.50;;;;;;;-1.33;69.62;98030.81;1719697;83;25732;-81
2021/12/13 09:22:39;;;;;;;84.52;44.50;;;;;;;-1.02;69.35;98030.98;1719694;83;25784;-81
2021/12/13 09:25:43;;;;;;;74.10;39.35;;;;;;;-0.86;69.09;98016.85;1719754;83;25720;-81
2021/12/13 09:28:25;;;;;;;59.13;31.45;;;;;;;-0.74;68.94;98018.02;1719351;83;27482;-81
2021/12/13 09:31:08;;;;;;;48.40;26.17;;;;;;;-0.62;68.85;98024.12;1719578;83;25991;-81
2021/12/13 09:33:46;;;;;;;58.58;31.80;;;;;;;-0.49;68.79;98012.85;1719607;83;25819;-81
2021/12/13 09:36:18;;;;;;;60.30;33.42;;;;;;;-0.41;68.64;98007.73;1689661;84;25739;-81
2021/12/13 09:39:17;;;;;;;63.20;32.60;;;;;;;-0.30;68.54;98000.69;1690895;84;25753;-81
2021/12/13 09:42:07;;;;;;;72.12;37.78;;;;;;;-0.19;68.45;97996.16;1688907;84;55209;-81
2021/12/13 09:44:55;;;;;;;;;;;;;;;-0.10;68.36;98003.81;1693077;84;25748;-81
2021/12/13 09:47:25;;;;;;;98.37;45.30;;;;;;;-0.04;68.07;98001.49;1680110;84;25761;-82
2021/12/13 09:50:06;;;;;;;78.85;41.73;;;;;;;0.09;68.14;97997.30;1674147;84;25831;-81
2021/12/13 09:52:44;;;;;;;87.00;43.65;;;;;;;0.29;68.02;98004.87;1702072;84;25754;-82
2021/12/13 09:55:37;;;;;;;90.15;44.85;;;;;;;0.55;67.96;97995.48;1688942;83;27384;-81
2021/12/13 09:58:18;;;;;;;88.20;46.73;;;;;;;0.82;67.61;97994.86;1719582;83;25774;-82
2021/12/13 10:00:53;;;;;;;89.70;45.15;;;;;;;1.03;67.17;97994.76;1719400;83;25763;-81
2021/12/13 10:03:47;;;;;;;79.30;40.52;;;;;;;1.22;67.13;97985.46;1718834;82;25773;-81
2021/12/13 10:06:19;;;;;;;67.22;34.92;;;;;;;1.38;66.81;97986.25;1719671;83;25674;-81
2021/12/13 10:08:53;;;;;;;76.82;38.13;;;;;;;1.43;66.16;97988.02;1703511;83;29327;-81
2021/12/13 10:11:25;;;;;;;72.25;38.88;;;;;;;1.36;66.36;97985.05;1719536;83;25728;-81
2021/12/13 10:13:53;;;;;;;76.95;38.98;;;;;;;1.29;66.26;97981.77;1719224;82;25808;-80
2021/12/13 10:16:26;;;;;;;86.63;41.37;;;;;;;1.38;66.34;97986.25;1690869;84;25693;-81
2021/12/13 10:18:54;;;;;;;79.50;41.10;;;;;;;1.46;66.26;97981.06;1690817;84;25290;-81
2021/12/13 10:21:34;;;;;;;74.85;39.33;;;;;;;1.63;66.36;97975.04;1690753;84;27623;-81
2021/12/13 10:24:12;;;;;;;74.53;39.55;;;;;;;1.82;66.08;97978.15;1690417;84;25730;-81
2021/12/13 10:26:42;;;;;;;74.12;39.48;;;;;;;2.00;65.93;97981.77;1705020;83;26552;-81
2021/12/13 10:29:12;;;;;;;79.15;42.25;;;;;;;2.26;65.62;97983.31;1717913;83;26519;-80
2021/12/13 10:32:02;;;;;;;71.85;37.75;;;;;;;2.41;65.58;97980.53;1713870;83;25752;-80
2021/12/13 10:34:34;;;;;;;58.50;31.57;;;;;;;2.69;65.28;97987.19;1690700;84;28145;-81
2021/12/13 10:37:06;;;;;;;48.08;25.90;;;;;;;2.99;64.79;97985.56;1690957;84;25668;-81
2021/12/13 10:39:38;;;;;;;66.45;36.90;;;;;;;3.07;64.41;97982.98;1690916;84;34795;-81
2021/12/13 10:42:13;;;;;;;50.78;27.32;;;;;;;3.25;64.16;97984.34;1691044;84;25874;-81
2021/12/13 10:44:44;;;;;;;77.42;41.73;;;;;;;3.24;62.74;97990.17;1688988;84;25773;-81
2021/12/13 10:47:17;;;;;;;80.65;43.05;;;;;;;3.22;63.53;97986.81;1690301;84;27368;-81
2021/12/13 10:49:47;;;;;;;73.90;39.33;;;;;;;3.37;63.40;97984.95;1690893;84;25674;-82
2021/12/13 10:52:22;;;;;;;73.07;39.48;;;;;;;3.50;63.31;97982.75;1690872;84;25697;-81
2021/12/13 10:54:53;;;;;;;76.60;39.90;;;;;;;3.64;63.13;97980.84;1690560;84;25803;-81
2021/12/13 10:57:25;;;;;;;73.37;38.78;;;;;;;3.73;62.87;97973.77;1690897;84;25750;-81
2021/12/13 10:59:53;;;;;;;64.00;33.50;;;;;;;3.90;62.96;97976.39;1690707;84;27398;-81
2021/12/13 11:02:29;;;;;;;72.20;38.42;;;;;;;4.23;62.90;97975.27;1664674;84;25827;-81
2021/12/13 11:05:01;;;;;;;90.05;44.85;;;;;;;4.51;62.80;97972.77;1690673;84;26400;-82
2021/12/13 11:07:29;;;;;;;83.75;42.15;;;;;;;4.76;62.42;97971.53;1690834;84;25753;-81
2021/12/13 11:09:58;;;;;;;71.70;38.30;;;;;;;4.90;61.04;97966.91;1690744;84;25783;-81
2021/12/13 11:12:33;;;;;;;68.28;36.53;;;;;;;4.83;61.15;97967.23;1690717;84;27444;-81
2021/12/13 11:15:07;;;;;;;61.15;34.95;;;;;;;4.95;61.38;97960.06;1690536;84;25848;-81
2021/12/13 11:17:35;;;;;;;70.08;37.42;;;;;;;5.09;60.75;97959.94;1689522;84;26407;-81
2021/12/13 11:20:06;;;;;;;69.42;37.40;;;;;;;5.25;60.97;97955.97;1690564;84;25810;-81
2021/12/13 11:22:35;;;;;;;70.50;38.02;;;;;;;5.32;60.30;97948.94;1689617;84;25868;-81
2021/12/13 11:25:10;;;;;;;74.07;41.15;;;;;;;5.23;59.85;97944.58;1690353;84;27476;-81
2021/12/13 11:27:37;;;;;;;72.78;39.67;;;;;;;5.12;59.25;97957.44;1689932;84;25779;-81
2021/12/13 11:30:09;;;;;;;59.48;30.62;;;;;;;5.02;59.66;97945.55;1690610;84;25715;-81
2021/12/13 11:32:59;;;;;;;56.68;30.40;;;;;;;5.09;59.41;97951.91;1690806;84;26047;-81
2021/12/13 11:36:09;;;;;;;51.68;26.87;;;;;;;4.96;58.80;97945.69;1690641;84;26252;-81
2021/12/13 11:39:28;;;;;;;48.70;28.35;;;;;;;4.89;59.56;97943.83;1690717;84;27466;-80
2021/12/13 11:42:35;;;;;;;51.92;28.83;;;;;;;4.96;59.83;97942.17;1690529;84;25899;-81
2021/12/13 11:45:45;;;;;;;51.92;28.67;;;;;;;5.08;59.74;97946.22;1690532;84;25856;-81
2021/12/13 11:49:03;;;;;;;52.90;28.45;;;;;;;4.99;58.53;97942.69;1690607;84;26035;-81
2021/12/13 11:51:56;;;;;;;56.83;29.20;;;;;;;4.77;58.53;97953.16;1690355;84;25900;-81
2021/12/13 11:55:03;;;;;;;48.25;25.02;;;;;;;4.59;59.06;97955.41;1719376;83;27422;-81
2021/12/13 11:58:14;;;;;;;42.48;20.85;;;;;;;4.71;59.40;97950.61;1717328;83;25785;-81
2021/12/13 12:01:19;;;;;;;38.67;23.30;;;;;;;4.91;59.39;97943.17;1719171;83;25788;-81
2021/12/13 12:04:09;;;;;;;37.65;22.17;;;;;;;5.10;59.15;97944.22;1718446;83;26390;-81
2021/12/13 12:07:02;;;;;;;38.20;21.95;;;;;;;5.20;59.07;97936.88;1718347;83;25777;-81
2021/12/13 12:10:07;;;;;;;43.00;22.50;;;;;;;5.30;58.92;97933.57;1715903;83;28174;-81
2021/12/13 12:13:07;;;;;;;39.35;20.70;;;;;;;5.23;58.66;97937.89;1695231;83;26565;-80